Athol, KS (66932)

11:36 AM CST on March 02, 2015 (GMT -0600)
RAWS KIRWIN KS US | Change Station
CLOSE
Current Station
Personal Weather Station
Location: Kirwin, KS
Elevation: 1747 ft
Nearby Weather Stations

Elev 1747 ft 39.67 °N, 99.20 °W | Updated 40 minutes ago

Mostly Cloudy
Mostly Cloudy
35 °F
Feels Like 26 °F
N
14
Wind Variable Wind from South
Gusts 23.0 mph

Today
High -- | Low -- °F
--% Chance of Precip.
Yesterday
High -- | Low -- °F
Precip. -- in
7:07 AM 6:28 PM
Waxing Gibbous, 92% visible
Pressure 30.24 in
Visibility 10.0 miles
Clouds Overcast 5000 ft
Windchill 26 °F
Dew Point 19 °F
Humidity 51%
Rainfall 0.00 in
Snow Depth Not available.
UV 1 out of 12
Pollen .70 out of 12
Air Quality Not available.
Flu Activity Not available.
METAR KHDE 021715Z AUTO 16024G28KT 10SM OVC050 01/M09 A3024 RMK AO2 T00091090

More Conditions Fewer Conditions

Pressure 30.24 in
Visibility 10.0 miles
Clouds Overcast 5000 ft
Windchill 26 °F
Dew Point 19 °F
Humidity 51%
Rainfall 0.00 in
Snow Depth Not available.
UV 1 out of 12
Pollen .70 out of 12
Air Quality Not available.
Flu Activity Not available.
METAR KHDE 021715Z AUTO 16024G28KT 10SM OVC050 01/M09 A3024 RMK AO2 T00091090

More Conditions Fewer Conditions

10-Day Weather Forecast

Almanac

Astronomy

Mar. 02, 2015 Rise Set
Actual Time
Civil Twilight
Nautical Twilight
Astronomical Twilight
Moon
Length of Visible Light
Length of Day
Tomorrow will be .
, % of the Moon is Illuminated

Today's Extremes

State Highs State Lows

Community

WunderPhotos

Upload Photos

1,801,877 photos uploaded!

WunderBlogs® & News

Nearby

Air Quality

  Air Quality AQ Index Pollutant
Not available.

Snow Depth

Station Depth Elevation

Earthquake Activity

City Distance Mag. Time & Date
Minimum magnitude displayed is 2.5.

Coastal Water Temperatures

Place Temperature

Nearby Weather Stations